Time;durP1;ratioP1;P1;durP2;ratioP2;P2;SDS_P1;SDS_P2;PMS_P1;PMS_P2;Temp;Humidity;BMP_temperature;BMP_pressure;BME280_temperature;BME280_humidity;BME280_pressure;Samples;Min_cycle;Max_cycle;Signal;HPM_P1;HPM_P2
2022/05/03 00:02:32;;;;;;;5.75;4.45;;;13.70;99.90;;;;;;6091818;23;20097;-83
2022/05/03 00:05:08;;;;;;;6.60;4.50;;;13.70;99.90;;;;;;6091730;23;20453;-82
2022/05/03 00:08:00;;;;;;;5.45;4.72;;;13.70;99.90;;;;;;6091652;23;20083;-83
2022/05/03 00:10:39;;;;;;;6.43;4.38;;;13.70;99.90;;;;;;6093245;23;20005;-82
2022/05/03 00:13:11;;;;;;;5.53;4.53;;;13.70;99.90;;;;;;6091612;23;20010;-83
2022/05/03 00:15:40;;;;;;;6.28;4.53;;;13.70;99.90;;;;;;6091659;23;20006;-83
2022/05/03 00:18:07;;;;;;;6.63;4.50;;;13.70;99.90;;;;;;6091517;23;20014;-83
2022/05/03 00:20:33;;;;;;;6.45;4.60;;;13.70;99.90;;;;;;6093082;23;20079;-82
2022/05/03 00:23:00;;;;;;;5.20;4.18;;;13.60;99.90;;;;;;6091601;23;20451;-83
2022/05/03 00:25:28;;;;;;;7.25;4.95;;;13.60;99.90;;;;;;6091571;23;20002;-82
2022/05/03 00:27:55;;;;;;;6.88;4.80;;;13.60;99.90;;;;;;6091522;23;20017;-83
2022/05/03 00:30:21;;;;;;;5.88;4.63;;;13.60;99.90;;;;;;6091771;23;20064;-83
2022/05/03 00:32:47;;;;;;;6.80;4.50;;;13.60;99.90;;;;;;6115005;23;20100;-83
2022/05/03 00:35:13;;;;;;;8.35;4.63;;;13.60;99.90;;;;;;6246158;23;20000;-82
2022/05/03 00:37:39;;;;;;;6.03;4.50;;;13.60;99.90;;;;;;6219156;23;20338;-83
2022/05/03 00:40:05;;;;;;;5.85;4.63;;;13.60;99.90;;;;;;6219296;23;20000;-83
2022/05/03 00:42:39;;;;;;;6.55;5.00;;;13.60;99.90;;;;;;6219308;23;20001;-83
2022/05/03 00:45:08;;;;;;;5.70;4.70;;;13.60;99.90;;;;;;6219147;23;20000;-82
2022/05/03 00:47:57;;;;;;;4.88;4.20;;;13.60;99.90;;;;;;6219107;23;20113;-83
2022/05/03 00:50:44;;;;;;;5.93;4.90;;;13.50;99.90;;;;;;6246214;23;20004;-83
2022/05/03 00:53:22;;;;;;;6.57;4.70;;;13.60;99.90;;;;;;6218996;23;20004;-83
2022/05/03 00:56:00;;;;;;;6.10;4.53;;;13.60;99.90;;;;;;6219109;23;20004;-82
2022/05/03 00:58:56;;;;;;;5.20;4.25;;;13.50;99.90;;;;;;6218859;23;20004;-82
2022/05/03 01:01:29;;;;;;;6.20;4.53;;;13.50;99.90;;;;;;6218919;23;20008;-82
2022/05/03 01:04:09;;;;;;;5.63;4.53;;;13.50;99.90;;;;;;6218916;23;20420;-82
2022/05/03 01:07:03;;;;;;;6.60;4.28;;;13.50;99.90;;;;;;6218959;23;20000;-82
2022/05/03 01:09:40;;;;;;;6.38;5.13;;;13.50;99.90;;;;;;6245900;23;20369;-82
2022/05/03 01:12:28;;;;;;;5.60;4.45;;;13.50;99.90;;;;;;6245839;23;20050;-82
2022/05/03 01:15:09;;;;;;;7.45;4.18;;;13.50;99.90;;;;;;6219102;23;20369;-82
2022/05/03 01:17:45;;;;;;;6.15;4.85;;;13.50;99.90;;;;;;6219049;23;20285;-82
2022/05/03 01:20:33;;;;;;;6.80;4.32;;;13.50;99.90;;;;;;6219693;23;20019;-82
2022/05/03 01:23:17;;;;;;;6.97;4.07;;;13.40;99.90;;;;;;6219160;23;20031;-82
2022/05/03 01:25:46;;;;;;;7.35;5.03;;;13.50;99.90;;;;;;6219015;23;20483;-82
2022/05/03 01:28:20;;;;;;;7.75;4.70;;;13.50;99.90;;;;;;6219027;23;20012;-82
2022/05/03 01:30:49;;;;;;;5.22;4.25;;;13.40;99.90;;;;;;6219008;23;20421;-82
2022/05/03 01:33:18;;;;;;;5.20;4.45;;;13.40;99.90;;;;;;6171611;23;20053;-82
2022/05/03 01:35:46;;;;;;;6.50;4.47;;;13.40;99.90;;;;;;6093025;23;20415;-82
2022/05/03 01:38:39;;;;;;;6.20;4.35;;;13.40;99.90;;;;;;6092652;23;20029;-82
2022/05/03 01:41:21;;;;;;;6.65;4.88;;;13.40;99.90;;;;;;6091942;23;20441;-81
2022/05/03 01:44:24;;;;;;;5.78;4.68;;;13.40;99.90;;;;;;6091195;23;20003;-81
2022/05/03 01:46:59;;;;;;;5.90;4.55;;;13.40;99.90;;;;;;6091149;23;20009;-81
2022/05/03 01:52:29;;;;;;;8.00;4.68;;;13.30;99.90;;;;;;6092687;23;20390;-82
2022/05/03 01:55:20;;;;;;;5.78;4.50;;;13.40;99.90;;;;;;6092629;23;20002;-81
2022/05/03 01:58:06;;;;;;;7.05;4.68;;;13.30;99.90;;;;;;6092800;23;20010;-82
2022/05/03 02:00:36;;;;;;;6.57;4.88;;;13.30;99.90;;;;;;6107325;23;20373;-82
2022/05/03 02:03:10;;;;;;;5.63;4.75;;;13.30;99.90;;;;;;6091083;23;20045;-81
2022/05/03 02:05:53;;;;;;;4.97;4.50;;;13.30;99.90;;;;;;6092630;23;20462;-82
2022/05/03 02:08:23;;;;;;;6.03;4.47;;;13.30;99.90;;;;;;6092371;23;20086;-82
2022/05/03 02:11:21;;;;;;;9.50;4.80;;;13.30;99.90;;;;;;6090892;23;20010;-82
2022/05/03 02:17:31;;;;;;;6.70;4.85;;;13.30;99.90;;;;;;6093859;23;20037;-82
2022/05/03 02:20:34;;;;;;;7.63;4.78;;;13.30;99.90;;;;;;6092053;23;20002;-82
2022/05/03 02:23:17;;;;;;;5.18;4.25;;;13.30;99.90;;;;;;6092226;23;20331;-82
2022/05/03 02:26:20;;;;;;;5.43;4.72;;;13.30;99.90;;;;;;6093553;23;20054;-82
2022/05/03 02:28:55;;;;;;;5.47;4.10;;;13.30;99.90;;;;;;6092060;23;20458;-81
2022/05/03 02:31:31;;;;;;;;;;;13.20;99.90;;;;;;6093922;23;20006;-82
2022/05/03 02:34:13;;;;;;;5.50;4.30;;;13.20;99.90;;;;;;6091928;23;19920;-81
2022/05/03 02:36:46;;;;;;;5.47;4.53;;;13.20;99.90;;;;;;6092452;23;20011;-82
2022/05/03 02:39:14;;;;;;;5.95;4.80;;;13.20;99.90;;;;;;6093761;23;19995;-82
2022/05/03 02:41:41;;;;;;;7.35;4.53;;;13.20;99.90;;;;;;6093707;23;19998;-82
2022/05/03 02:44:07;;;;;;;5.38;4.55;;;13.20;99.90;;;;;;6092198;23;20512;-82
2022/05/03 02:46:40;;;;;;;5.57;4.53;;;13.20;99.90;;;;;;6092159;23;20010;-82
2022/05/03 02:49:14;;;;;;;5.30;4.10;;;13.20;99.90;;;;;;6092471;23;20003;-82
2022/05/03 02:52:03;;;;;;;6.57;4.93;;;13.20;99.90;;;;;;6092151;23;20069;-82
2022/05/03 02:54:42;;;;;;;6.32;4.50;;;13.20;99.90;;;;;;6093819;23;20029;-82
2022/05/03 02:57:37;;;;;;;6.15;4.47;;;13.20;99.90;;;;;;6093587;23;19998;-82
2022/05/03 03:03:19;;;;;;;6.07;4.95;;;13.10;99.90;;;;;;6093957;23;20017;-82
2022/05/03 03:05:53;;;;;;;5.03;4.50;;;13.10;99.90;;;;;;6093879;23;20370;-82
2022/05/03 03:08:21;;;;;;;5.55;4.90;;;13.10;99.90;;;;;;6093607;23;20007;-81
2022/05/03 03:10:57;;;;;;;5.97;4.65;;;13.10;99.90;;;;;;6091949;23;20006;-82
2022/05/03 03:13:31;;;;;;;6.80;4.97;;;13.10;99.90;;;;;;6093443;23;19998;-82
2022/05/03 03:15:57;;;;;;;4.97;4.47;;;13.10;99.90;;;;;;6091922;23;20006;-82
2022/05/03 03:18:26;;;;;;;6.85;4.40;;;13.10;99.90;;;;;;6091777;23;20399;-82
2022/05/03 03:20:57;;;;;;;5.63;4.60;;;13.10;99.90;;;;;;6091798;23;20003;-82
2022/05/03 03:23:29;;;;;;;5.80;4.07;;;13.00;99.90;;;;;;6091829;23;20503;-82
2022/05/03 03:25:55;;;;;;;4.78;4.05;;;13.00;99.90;;;;;;6093135;23;20272;-82
2022/05/03 03:28:22;;;;;;;4.93;4.43;;;13.10;99.90;;;;;;6091659;23;20454;-82
2022/05/03 03:30:52;;;;;;;7.57;4.97;;;13.00;99.90;;;;;;6091672;23;20033;-82
2022/05/03 03:33:22;;;;;;;4.97;4.47;;;13.00;99.90;;;;;;6091469;23;20022;-82
2022/05/03 03:35:49;;;;;;;9.63;4.93;;;13.00;99.90;;;;;;6091796;23;20010;-82
2022/05/03 03:38:15;;;;;;;7.03;5.00;;;13.00;99.90;;;;;;6091662;23;20084;-82
2022/05/03 03:40:45;;;;;;;5.45;4.80;;;13.00;99.90;;;;;;6091745;23;20386;-83
2022/05/03 03:43:12;;;;;;;8.20;4.95;;;13.00;99.90;;;;;;6093282;23;20443;-82
2022/05/03 03:45:38;;;;;;;7.13;4.45;;;13.00;99.90;;;;;;6091828;23;20007;-82
2022/05/03 03:48:05;;;;;;;7.20;4.25;;;13.00;99.90;;;;;;6091628;23;20017;-82
2022/05/03 03:50:31;;;;;;;5.30;4.60;;;13.00;99.90;;;;;;6093380;23;19998;-82
2022/05/03 03:52:57;;;;;;;5.75;4.45;;;13.00;99.90;;;;;;6093241;23;20041;-82
2022/05/03 03:55:24;;;;;;;6.03;4.75;;;12.90;99.90;;;;;;6091782;23;20010;-82
2022/05/03 03:57:51;;;;;;;5.13;4.47;;;12.90;99.90;;;;;;6091695;23;20080;-82
2022/05/03 04:00:17;;;;;;;5.43;4.57;;;12.90;99.90;;;;;;6091924;23;20002;-82
2022/05/03 04:02:45;;;;;;;5.35;4.40;;;12.90;99.90;;;;;;6091802;23;20026;-82
2022/05/03 04:05:19;;;;;;;6.88;4.35;;;12.90;99.90;;;;;;6093575;23;20017;-82
2022/05/03 04:07:45;;;;;;;6.22;4.60;;;12.90;99.90;;;;;;6093251;23;20335;-82
2022/05/03 04:10:12;;;;;;;6.15;5.00;;;12.90;99.90;;;;;;6093095;23;20009;-82
2022/05/03 04:12:38;;;;;;;6.20;5.07;;;12.90;99.90;;;;;;6091612;23;20007;-82
2022/05/03 04:15:05;;;;;;;5.20;4.32;;;12.90;99.90;;;;;;6091575;23;20036;-82
2022/05/03 04:17:30;;;;;;;7.13;4.60;;;12.90;99.90;;;;;;6092904;23;20064;-82
2022/05/03 04:19:56;;;;;;;4.78;4.32;;;12.90;99.90;;;;;;6091748;23;20006;-82
2022/05/03 04:22:28;;;;;;;6.03;4.60;;;12.90;99.90;;;;;;6091507;23;20013;-81
2022/05/03 04:24:54;;;;;;;5.45;4.22;;;12.90;99.90;;;;;;6091500;23;20002;-82
2022/05/03 04:27:23;;;;;;;5.45;4.72;;;12.90;99.90;;;;;;6091645;23;20085;-82
2022/05/03 04:29:49;;;;;;;5.18;4.32;;;12.90;99.90;;;;;;6091388;23;20010;-82
2022/05/03 04:32:15;;;;;;;7.70;5.50;;;12.90;99.90;;;;;;6091460;23;20342;-82
2022/05/03 04:34:41;;;;;;;8.50;5.93;;;12.90;99.90;;;;;;6091248;23;20109;-82
2022/05/03 04:37:07;;;;;;;6.70;5.70;;;12.80;99.90;;;;;;6091032;23;20030;-82
2022/05/03 04:39:33;;;;;;;7.15;5.32;;;12.80;99.90;;;;;;6092896;23;20005;-82
2022/05/03 04:41:58;;;;;;;7.18;5.70;;;12.90;99.90;;;;;;6091422;23;19999;-83
2022/05/03 04:44:24;;;;;;;6.85;5.30;;;12.90;99.90;;;;;;6093193;23;20030;-81
2022/05/03 04:46:50;;;;;;;6.30;5.55;;;12.80;99.90;;;;;;6092284;23;20009;-82
2022/05/03 04:49:15;;;;;;;6.28;5.15;;;12.80;99.90;;;;;;6093180;23;19998;-81
2022/05/03 04:51:41;;;;;;;7.47;5.35;;;12.90;99.90;;;;;;6091499;23;20007;-82
2022/05/03 04:54:08;;;;;;;7.40;5.32;;;12.80;99.90;;;;;;6091531;23;20055;-82
2022/05/03 04:56:35;;;;;;;6.70;5.80;;;12.80;99.90;;;;;;6091295;23;20332;-82
2022/05/03 04:59:02;;;;;;;5.75;4.85;;;12.80;99.90;;;;;;6092694;23;20007;-82
2022/05/03 05:01:29;;;;;;;5.75;5.15;;;12.80;99.90;;;;;;6091189;23;20058;-82
2022/05/03 05:03:55;;;;;;;6.93;5.00;;;12.90;99.90;;;;;;6091203;23;20081;-82
2022/05/03 05:06:20;;;;;;;8.13;5.43;;;12.80;99.90;;;;;;6091205;23;20002;-82
2022/05/03 05:08:46;;;;;;;6.07;5.22;;;12.80;99.90;;;;;;6091139;23;20011;-82
2022/05/03 05:11:12;;;;;;;6.25;5.22;;;12.90;99.90;;;;;;6091116;23;20509;-82
2022/05/03 05:13:38;;;;;;;6.53;5.00;;;12.90;99.90;;;;;;6091230;23;20006;-82
2022/05/03 05:16:06;;;;;;;6.82;5.18;;;12.80;99.90;;;;;;6091135;23;20343;-82
2022/05/03 05:18:31;;;;;;;6.53;5.20;;;12.80;99.90;;;;;;6091113;23;20108;-82
2022/05/03 05:20:57;;;;;;;7.15;4.90;;;12.80;99.90;;;;;;6091140;23;20002;-82
2022/05/03 05:23:23;;;;;;;6.00;5.40;;;12.90;99.90;;;;;;6091409;23;19998;-82
2022/05/03 05:25:50;;;;;;;5.75;4.93;;;12.90;99.90;;;;;;6092596;23;20065;-82
2022/05/03 05:28:17;;;;;;;5.95;4.60;;;12.90;99.90;;;;;;6092534;23;20002;-82
2022/05/03 05:30:43;;;;;;;7.18;4.70;;;12.90;99.90;;;;;;6090912;23;20343;-82
2022/05/03 05:33:09;;;;;;;6.95;5.13;;;12.90;99.90;;;;;;6138424;23;20016;-82
2022/05/03 05:35:35;;;;;;;6.55;5.50;;;12.90;99.90;;;;;;6218644;23;20079;-82
2022/05/03 05:38:01;;;;;;;6.72;5.03;;;12.90;99.90;;;;;;6218620;23;20036;-82
2022/05/03 05:40:28;;;;;;;7.97;5.10;;;12.90;99.90;;;;;;6218818;23;20021;-82
2022/05/03 05:42:54;;;;;;;7.38;5.32;;;12.90;99.90;;;;;;6245626;23;20076;-82
2022/05/03 05:45:19;;;;;;;6.55;4.88;;;12.90;99.90;;;;;;6245545;23;20031;-82
2022/05/03 05:47:45;;;;;;;6.38;5.25;;;12.90;99.90;;;;;;6218739;23;20004;-82
2022/05/03 05:50:11;;;;;;;6.85;4.97;;;13.00;99.90;;;;;;6219659;23;20012;-82
2022/05/03 05:55:21;;;;;;;6.57;5.13;;;13.00;99.90;;;;;;6248000;23;20040;-81
2022/05/03 05:57:47;;;;;;;7.20;5.38;;;13.00;99.90;;;;;;6220565;23;20345;-82
2022/05/03 06:00:14;;;;;;;9.45;6.50;;;13.00;99.90;;;;;;6247387;23;20000;-82
2022/05/03 06:02:40;;;;;;;8.48;6.15;;;12.90;99.90;;;;;;6220435;23;20004;-81
2022/05/03 06:05:06;;;;;;;8.25;6.30;;;12.80;99.90;;;;;;6220493;23;20000;-81
2022/05/03 06:07:32;;;;;;;8.35;6.28;;;12.70;99.90;;;;;;6220532;23;20008;-81
2022/05/03 06:09:58;;;;;;;8.70;6.07;;;12.70;99.90;;;;;;6247350;23;20450;-82
2022/05/03 06:12:24;;;;;;;10.00;6.05;;;12.80;99.90;;;;;;6247709;23;20352;-82
2022/05/03 06:14:49;;;;;;;7.63;5.43;;;12.80;99.90;;;;;;6220533;23;20000;-82
2022/05/03 06:17:15;;;;;;;7.82;6.18;;;12.80;99.90;;;;;;6220388;23;20344;-82
2022/05/03 06:19:41;;;;;;;6.65;5.97;;;12.90;99.90;;;;;;6247324;23;20424;-82
2022/05/03 06:22:06;;;;;;;9.52;5.97;;;12.90;99.90;;;;;;6220409;23;20004;-83
2022/05/03 06:24:32;;;;;;;11.75;6.63;;;12.90;99.90;;;;;;6247336;23;19996;-82
2022/05/03 06:26:58;;;;;;;10.55;6.30;;;12.90;99.90;;;;;;6220394;23;20012;-81
2022/05/03 06:29:24;;;;;;;8.60;5.95;;;12.90;99.90;;;;;;6220205;23;20061;-81
2022/05/03 06:31:50;;;;;;;7.75;5.35;;;12.90;99.90;;;;;;6247201;23;20000;-82
2022/05/03 06:34:17;;;;;;;7.63;5.78;;;13.00;99.90;;;;;;6247015;23;20016;-82
2022/05/03 06:36:42;;;;;;;10.55;6.25;;;13.00;99.90;;;;;;6220212;23;20344;-82
2022/05/03 06:39:08;;;;;;;7.30;5.90;;;13.00;99.90;;;;;;6220145;23;20083;-82
2022/05/03 06:41:34;;;;;;;11.98;5.90;;;13.00;99.90;;;;;;6220263;23;20328;-82
2022/05/03 06:44:00;;;;;;;8.02;5.72;;;13.00;99.90;;;;;;6220278;23;20385;-82
2022/05/03 06:46:26;;;;;;;9.32;5.88;;;13.00;99.90;;;;;;6247375;23;20000;-82
2022/05/03 06:48:52;;;;;;;7.85;5.43;;;13.00;99.90;;;;;;6246961;23;20011;-81
2022/05/03 06:51:18;;;;;;;7.05;5.80;;;13.00;99.90;;;;;;6246895;23;20420;-82
2022/05/03 06:53:44;;;;;;;11.90;5.75;;;13.00;99.90;;;;;;6220180;23;20058;-82
2022/05/03 06:56:09;;;;;;;7.85;5.70;;;13.00;99.90;;;;;;6220104;23;20008;-82
2022/05/03 06:58:35;;;;;;;7.57;5.38;;;13.00;99.90;;;;;;6220033;23;20459;-82
2022/05/03 07:01:08;;;;;;;9.57;5.63;;;13.00;99.90;;;;;;6219981;23;20460;-82
2022/05/03 07:03:34;;;;;;;9.13;5.72;;;13.00;99.90;;;;;;6247159;23;20069;-82
2022/05/03 07:05:59;;;;;;;9.65;5.85;;;13.10;99.90;;;;;;6219976;23;20079;-82
2022/05/03 07:08:25;;;;;;;7.80;6.00;;;13.10;99.90;;;;;;6221010;23;20343;-82
2022/05/03 07:10:51;;;;;;;6.60;5.80;;;13.10;99.90;;;;;;6219980;23;20468;-82
2022/05/03 07:13:23;;;;;;;8.02;6.03;;;13.10;99.90;;;;;;6220054;23;20004;-82
2022/05/03 07:15:56;;;;;;;8.13;5.65;;;13.20;99.90;;;;;;6219864;23;20458;-82
2022/05/03 07:23:51;;;;;;;10.30;5.53;;;13.20;99.90;;;;;;6247149;23;20050;-82
2022/05/03 07:26:18;;;;;;;9.35;5.80;;;13.30;99.90;;;;;;6219884;23;20003;-83
2022/05/03 07:28:48;;;;;;;10.85;5.97;;;13.30;99.90;;;;;;6219745;23;20000;-82
2022/05/03 07:31:18;;;;;;;9.48;5.85;;;13.30;99.90;;;;;;6219629;23;20004;-82
2022/05/03 07:33:44;;;;;;;10.70;5.97;;;13.30;99.90;;;;;;6246683;23;20072;-82
2022/05/03 07:36:10;;;;;;;11.30;5.35;;;13.30;99.90;;;;;;6219612;23;20004;-82
2022/05/03 07:38:36;;;;;;;9.82;5.32;;;13.30;99.90;;;;;;6219627;23;20007;-82
2022/05/03 07:41:02;;;;;;;7.50;5.15;;;13.30;99.90;;;;;;6219576;23;20341;-82
2022/05/03 07:43:28;;;;;;;7.57;5.72;;;13.40;99.90;;;;;;6219719;23;20007;-83
2022/05/03 07:45:54;;;;;;;7.32;5.40;;;13.30;99.90;;;;;;6219656;23;20033;-83
2022/05/03 07:48:20;;;;;;;10.77;5.75;;;13.40;99.90;;;;;;6219605;23;20011;-83
2022/05/03 07:50:46;;;;;;;9.18;5.68;;;13.40;99.90;;;;;;6219493;23;20101;-83
2022/05/03 07:53:12;;;;;;;5.88;5.22;;;13.40;99.90;;;;;;6246416;23;20031;-83
2022/05/03 07:55:37;;;;;;;6.13;5.53;;;13.40;99.90;;;;;;6246414;23;20091;-83
2022/05/03 07:58:03;;;;;;;8.27;5.03;;;13.50;99.90;;;;;;6219395;23;20107;-83
2022/05/03 08:00:29;;;;;;;8.70;5.20;;;13.50;99.90;;;;;;6219572;23;20126;-83
2022/05/03 08:02:55;;;;;;;8.02;5.35;;;13.50;99.90;;;;;;6219621;23;20011;-83
2022/05/03 08:05:20;;;;;;;9.45;5.53;;;13.50;99.90;;;;;;6219500;23;20306;-83
2022/05/03 08:07:47;;;;;;;10.77;5.22;;;13.50;99.90;;;;;;6246677;23;20004;-83
2022/05/03 08:10:13;;;;;;;7.65;5.53;;;13.60;99.90;;;;;;6219386;23;20004;-83
2022/05/03 08:12:38;;;;;;;7.30;5.00;;;13.60;99.90;;;;;;6219059;23;20000;-83
2022/05/03 08:15:05;;;;;;;5.43;4.93;;;13.60;99.90;;;;;;6246285;23;20004;-83
2022/05/03 08:17:31;;;;;;;8.82;5.50;;;13.70;99.90;;;;;;6246025;23;19996;-84
2022/05/03 08:19:57;;;;;;;8.02;4.78;;;13.70;99.90;;;;;;6219535;23;20309;-84
2022/05/03 08:22:24;;;;;;;6.82;5.40;;;13.70;99.90;;;;;;6219416;23;20083;-84
2022/05/03 08:24:51;;;;;;;9.52;5.60;;;13.70;99.90;;;;;;6219199;23;20008;-84
2022/05/03 08:27:16;;;;;;;7.78;4.93;;;13.80;99.90;;;;;;6246250;23;20000;-84
2022/05/03 08:29:42;;;;;;;6.93;4.95;;;13.80;99.90;;;;;;6219218;23;20016;-84
2022/05/03 08:32:12;;;;;;;6.32;4.97;;;13.80;99.90;;;;;;6246115;23;20087;-84
2022/05/03 08:34:37;;;;;;;5.15;4.65;;;13.80;99.90;;;;;;6102347;23;20018;-84
2022/05/03 08:42:32;;;;;;;6.20;4.85;;;13.90;99.90;;;;;;6093046;23;20025;-84
2022/05/03 08:44:59;;;;;;;6.80;4.80;;;14.00;99.90;;;;;;6091568;23;20006;-84
2022/05/03 08:47:28;;;;;;;7.53;4.55;;;14.00;99.90;;;;;;6091426;23;20434;-84
2022/05/03 08:50:06;;;;;;;7.70;4.78;;;14.10;99.90;;;;;;6091380;23;20006;-85
2022/05/03 08:52:50;;;;;;;5.47;4.50;;;14.10;99.90;;;;;;6091399;23;20057;-85
2022/05/03 08:55:16;;;;;;;9.35;4.80;;;14.20;99.90;;;;;;6092428;23;20011;-84
2022/05/03 08:57:43;;;;;;;8.32;4.55;;;14.30;99.90;;;;;;6092804;23;20040;-84
2022/05/03 09:00:10;;;;;;;5.75;4.47;;;14.30;99.90;;;;;;6091420;23;20319;-84
2022/05/03 09:02:52;;;;;;;6.63;4.47;;;14.30;99.90;;;;;;6091336;23;20076;-84
2022/05/03 09:05:18;;;;;;;7.07;4.68;;;14.40;99.90;;;;;;6091429;23;20002;-84
2022/05/03 09:07:52;;;;;;;5.80;4.15;;;14.40;99.90;;;;;;6092750;23;20033;-84
2022/05/03 09:10:25;;;;;;;6.18;4.22;;;14.50;99.90;;;;;;6091451;23;20026;-84
2022/05/03 09:12:51;;;;;;;4.70;4.20;;;14.50;99.90;;;;;;6092669;23;20006;-84
2022/05/03 09:15:34;;;;;;;6.15;4.60;;;14.60;99.90;;;;;;6091818;23;20439;-84
2022/05/03 09:18:01;;;;;;;6.53;4.40;;;14.60;99.90;;;;;;6091403;23;20018;-84
2022/05/03 09:26:19;;;;;;;7.25;4.80;;;14.70;99.90;;;;;;6092772;23;20053;-85
2022/05/03 09:28:48;;;;;;;6.22;4.95;;;14.70;99.90;;;;;;6092703;23;20113;-85
2022/05/03 09:31:26;;;;;;;5.43;4.30;;;14.70;99.90;;;;;;6091021;23;20061;-84
2022/05/03 09:33:52;;;;;;;10.25;4.85;;;14.80;99.90;;;;;;6090947;23;20354;-85
2022/05/03 09:36:17;;;;;;;7.25;4.25;;;14.80;99.90;;;;;;6091230;23;20007;-85
2022/05/03 09:38:48;;;;;;;6.10;4.40;;;14.80;99.90;;;;;;6092844;23;20509;-85
2022/05/03 09:41:15;;;;;;;6.10;4.15;;;14.80;99.90;;;;;;6093009;23;20002;-85
2022/05/03 09:44:00;;;;;;;6.78;4.53;;;14.80;99.90;;;;;;6092596;23;20003;-84
2022/05/03 09:46:26;;;;;;;5.28;4.38;;;14.90;99.90;;;;;;6092721;23;19999;-84
2022/05/03 09:48:54;;;;;;;5.95;5.07;;;14.90;99.90;;;;;;6091055;23;20327;-84
2022/05/03 09:51:21;;;;;;;7.60;5.00;;;15.70;99.90;;;;;;6091082;23;20011;-84
2022/05/03 09:53:59;;;;;;;7.68;4.90;;;15.80;99.90;;;;;;6090980;23;20032;-85
2022/05/03 09:56:27;;;;;;;8.57;5.20;;;15.80;99.90;;;;;;6090722;23;20009;-85
2022/05/03 09:58:58;;;;;;;6.65;4.82;;;15.70;99.90;;;;;;6090896;23;20089;-85
2022/05/03 10:01:25;;;;;;;6.15;4.75;;;15.60;99.90;;;;;;6091006;23;20009;-85
2022/05/03 10:03:51;;;;;;;7.70;4.80;;;15.50;99.90;;;;;;6090968;23;20052;-85
2022/05/03 10:06:20;;;;;;;8.25;4.75;;;15.50;99.90;;;;;;6090946;23;20430;-85
2022/05/03 10:08:51;;;;;;;6.45;4.55;;;15.40;99.90;;;;;;6090831;23;20017;-85
2022/05/03 10:11:17;;;;;;;7.28;4.25;;;15.40;99.90;;;;;;6091964;23;20002;-85
2022/05/03 10:13:43;;;;;;;6.65;4.10;;;15.30;99.90;;;;;;6091292;23;20128;-85
2022/05/03 10:21:50;;;;;;;6.50;4.05;;;15.20;99.90;;;;;;6092538;23;20053;-85
2022/05/03 10:24:19;;;;;;;4.55;4.00;;;15.20;99.90;;;;;;6090963;23;20007;-85
2022/05/03 10:26:56;;;;;;;3.92;3.47;;;15.20;99.90;;;;;;6092183;23;20009;-85
2022/05/03 10:29:26;;;;;;;5.82;3.63;;;15.30;99.90;;;;;;6092294;23;20002;-85
2022/05/03 10:32:02;;;;;;;4.13;3.45;;;15.30;99.90;;;;;;6090723;23;20006;-85
2022/05/03 10:34:45;;;;;;;7.05;3.85;;;15.40;99.90;;;;;;6090841;23;20084;-84
2022/05/03 10:37:34;;;;;;;5.53;3.60;;;15.40;99.90;;;;;;6093185;23;20088;-85
2022/05/03 10:40:13;;;;;;;4.90;4.00;;;15.40;99.90;;;;;;6090342;23;20002;-85
2022/05/03 10:42:39;;;;;;;5.00;3.25;;;15.40;99.90;;;;;;6093467;23;20018;-86
2022/05/03 10:45:11;;;;;;;5.43;3.58;;;15.30;99.90;;;;;;6092044;23;20378;-86
2022/05/03 10:47:52;;;;;;;4.30;3.60;;;15.20;99.90;;;;;;6091955;23;20090;-85
2022/05/03 10:50:18;;;;;;;4.40;3.55;;;15.20;99.90;;;;;;6091894;23;20017;-85
2022/05/03 10:52:46;;;;;;;7.30;3.70;;;15.20;99.90;;;;;;6091803;23;20013;-85
2022/05/03 10:55:13;;;;;;;4.55;3.33;;;15.10;99.90;;;;;;6091818;23;20010;-85
2022/05/03 10:58:18;;;;;;;4.78;3.08;;;15.20;99.90;;;;;;6091801;23;20017;-84
2022/05/03 11:01:02;;;;;;;4.00;3.27;;;15.20;99.90;;;;;;6093408;23;19999;-85
2022/05/03 11:03:29;;;;;;;3.67;3.13;;;15.20;99.90;;;;;;6092097;23;20057;-85
2022/05/03 11:06:23;;;;;;;4.30;3.20;;;15.30;99.90;;;;;;6091704;23;20030;-85
2022/05/03 11:11:37;;;;;;;6.07;3.33;;;15.30;99.90;;;;;;6093388;23;20301;-85
2022/05/03 11:14:04;;;;;;;4.82;3.47;;;15.30;99.90;;;;;;6091726;23;20010;-85
2022/05/03 11:16:34;;;;;;;4.43;3.15;;;15.20;99.90;;;;;;6092341;23;20391;-85
2022/05/03 11:19:10;;;;;;;3.70;3.17;;;15.20;99.90;;;;;;6091746;23;20080;-85
2022/05/03 11:21:35;;;;;;;4.18;3.35;;;15.20;99.90;;;;;;6093407;23;20026;-85
2022/05/03 11:24:01;;;;;;;3.38;2.97;;;15.10;99.90;;;;;;6093853;23;20419;-85
2022/05/03 11:26:28;;;;;;;4.70;2.83;;;15.10;99.90;;;;;;6091846;23;20006;-86
2022/05/03 11:28:57;;;;;;;3.17;2.88;;;15.10;99.90;;;;;;6093363;23;20011;-85
2022/05/03 11:31:25;;;;;;;4.72;3.17;;;15.00;99.90;;;;;;6091685;23;20022;-84
2022/05/03 11:33:52;;;;;;;4.80;3.55;;;15.00;99.90;;;;;;6182980;23;20452;-83
2022/05/03 11:36:22;;;;;;;4.78;2.92;;;15.10;99.90;;;;;;6246697;23;20007;-84
2022/05/03 11:38:49;;;;;;;8.50;3.53;;;15.10;99.90;;;;;;6219806;23;20093;-85
2022/05/03 11:41:19;;;;;;;4.80;3.00;;;15.10;99.90;;;;;;6219688;23;20382;-85
2022/05/03 11:43:45;;;;;;;3.88;3.28;;;15.10;99.90;;;;;;6219900;23;20010;-86
2022/05/03 11:46:12;;;;;;;6.50;3.33;;;15.10;99.90;;;;;;6219778;23;20455;-85
2022/05/03 11:48:38;;;;;;;4.18;3.05;;;15.20;99.90;;;;;;6246074;23;20003;-85
2022/05/03 11:56:34;;;;;;;3.30;2.92;;;15.30;99.90;;;;;;6246957;23;20085;-85
2022/05/03 11:59:00;;;;;;;4.90;3.08;;;15.30;99.90;;;;;;6219613;23;20067;-86
2022/05/03 12:01:32;;;;;;;4.22;3.20;;;15.30;99.90;;;;;;6219528;23;20424;-85
2022/05/03 12:04:02;;;;;;;5.60;3.28;;;15.20;99.90;;;;;;6219644;23;20340;-85
2022/05/03 12:06:44;;;;;;;3.72;3.13;;;15.20;99.90;;;;;;6219537;23;20018;-85
2022/05/03 12:09:19;;;;;;;3.08;2.72;;;15.20;99.90;;;;;;6219480;23;20004;-85
2022/05/03 12:14:42;;;;;;;6.13;2.80;;;15.20;99.90;;;;;;6246706;23;20015;-85
2022/05/03 12:17:08;;;;;;;6.88;2.83;;;15.30;99.90;;;;;;6219465;23;20005;-84
2022/05/03 12:19:35;;;;;;;5.18;2.70;;;15.30;99.90;;;;;;6219451;23;20061;-85
2022/05/03 12:22:30;;;;;;;4.97;3.17;;;15.30;99.90;;;;;;6219377;23;20429;-85
2022/05/03 12:24:56;;;;;;;;;;;15.20;99.90;;;;;;6216583;23;20004;-85
2022/05/03 12:27:25;;;;;;;7.43;2.88;;;15.20;99.90;;;;;;6219234;23;19991;-85
2022/05/03 12:29:50;;;;;;;4.50;3.08;;;15.20;99.90;;;;;;6219300;23;20018;-85
2022/05/03 12:32:22;;;;;;;4.82;3.20;;;15.10;99.90;;;;;;6219313;23;20005;-85
2022/05/03 12:34:57;;;;;;;3.80;3.42;;;15.10;99.90;;;;;;6093894;23;20018;-85
2022/05/03 12:37:23;;;;;;;3.92;3.10;;;15.10;99.90;;;;;;6091781;23;20014;-84
2022/05/03 12:39:49;;;;;;;3.20;2.90;;;15.00;99.90;;;;;;6091998;23;20491;-84
2022/05/03 12:42:15;;;;;;;3.13;2.83;;;15.00;99.90;;;;;;6091932;23;20033;-84
2022/05/03 12:45:12;;;;;;;3.28;2.97;;;15.00;99.90;;;;;;6091788;23;20052;-84
2022/05/03 12:47:38;;;;;;;3.58;2.85;;;15.00;99.90;;;;;;6098242;23;20006;-85
2022/05/03 12:50:03;;;;;;;4.72;2.97;;;15.10;99.90;;;;;;6091720;23;20002;-84
2022/05/03 12:52:29;;;;;;;7.20;2.70;;;15.30;99.90;;;;;;6093279;23;20358;-85
2022/05/03 12:54:55;;;;;;;4.57;2.72;;;15.50;99.90;;;;;;6091621;23;20006;-84
2022/05/03 13:00:05;;;;;;;5.78;2.63;;;16.00;99.90;;;;;;6093201;23;20014;-85
2022/05/03 13:02:31;;;;;;;7.00;2.80;;;16.10;99.90;;;;;;6091274;23;20312;-84
2022/05/03 13:04:57;;;;;;;2.90;2.42;;;16.00;99.90;;;;;;6091400;23;20003;-84
2022/05/03 13:07:22;;;;;;;4.47;2.67;;;15.90;99.90;;;;;;6092871;23;20003;-84
2022/05/03 13:09:48;;;;;;;3.45;2.58;;;15.80;99.90;;;;;;6091274;23;20082;-85
2022/05/03 13:12:14;;;;;;;2.88;2.58;;;15.70;99.90;;;;;;6091266;23;20034;-86
2022/05/03 13:14:40;;;;;;;3.33;2.58;;;15.60;99.90;;;;;;6092823;23;20009;-84
2022/05/03 13:17:06;;;;;;;3.85;3.30;;;15.40;99.90;;;;;;6091277;23;20316;-84
2022/05/03 13:19:32;;;;;;;3.83;3.00;;;15.30;99.90;;;;;;6091612;23;20038;-84
2022/05/03 13:21:58;;;;;;;3.67;3.38;;;15.30;99.90;;;;;;6092953;23;20029;-83
2022/05/03 13:24:24;;;;;;;3.03;2.72;;;15.20;99.90;;;;;;6093030;23;20003;-84
2022/05/03 13:26:50;;;;;;;4.40;2.95;;;15.10;99.90;;;;;;6091346;23;20002;-85
2022/05/03 13:29:19;;;;;;;5.28;3.40;;;15.10;99.90;;;;;;6091437;23;20022;-84
2022/05/03 13:31:45;;;;;;;6.93;3.17;;;15.10;99.90;;;;;;6091273;23;20017;-83
2022/05/03 13:34:12;;;;;;;8.30;3.53;;;15.10;99.90;;;;;;6091409;23;20022;-84
2022/05/03 13:42:09;;;;;;;6.15;2.83;;;14.90;99.90;;;;;;6093133;23;20029;-84
2022/05/03 13:44:36;;;;;;;5.20;3.45;;;14.90;99.90;;;;;;6091218;23;20007;-83
2022/05/03 13:47:04;;;;;;;4.97;3.22;;;14.80;99.90;;;;;;6091263;23;20060;-84
2022/05/03 13:49:30;;;;;;;5.55;3.10;;;14.80;99.90;;;;;;6091023;23;20073;-84
2022/05/03 13:51:57;;;;;;;4.20;3.10;;;14.70;99.90;;;;;;6091192;23;19999;-84
2022/05/03 13:54:22;;;;;;;4.68;3.50;;;14.70;99.90;;;;;;6092479;23;20426;-83
2022/05/03 13:56:48;;;;;;;4.90;3.35;;;14.70;99.90;;;;;;6091250;23;20016;-84
2022/05/03 13:59:14;;;;;;;6.20;3.58;;;14.70;99.90;;;;;;6092447;23;20418;-83